Metar z połowy godziny Komunikat METAR ze strony awiacja.imgw.pl Metar G30 EPKS METAR EPKS 200400Z 25011KT 9999 SCT022 OVC050 05/03 Q1016 RMK 054 083 8/4=